sensor_id;sensor_type;location;lat;lon;timestamp;temperature;humidity
14555;DHT22;7364;50.870;4.722;2023-04-03T00:00:45;4.60;99.90
14555;DHT22;7364;50.870;4.722;2023-04-03T00:03:13;4.60;99.90
14555;DHT22;7364;50.870;4.722;2023-04-03T00:05:41;4.50;99.90
14555;DHT22;7364;50.870;4.722;2023-04-03T00:08:09;4.50;99.90
14555;DHT22;7364;50.870;4.722;2023-04-03T00:10:37;4.50;99.90
14555;DHT22;7364;50.870;4.722;2023-04-03T00:13:05;4.50;99.90
14555;DHT22;7364;50.870;4.722;2023-04-03T00:15:34;4.50;99.90
14555;DHT22;7364;50.870;4.722;2023-04-03T00:18:02;4.50;99.90
14555;DHT22;7364;50.870;4.722;2023-04-03T00:20:33;4.50;99.90
14555;DHT22;7364;50.870;4.722;2023-04-03T00:23:01;4.50;99.90
14555;DHT22;7364;50.870;4.722;2023-04-03T00:25:30;4.40;99.90
14555;DHT22;7364;50.870;4.722;2023-04-03T00:27:57;4.40;99.90
14555;DHT22;7364;50.870;4.722;2023-04-03T00:30:24;4.40;99.90
14555;DHT22;7364;50.870;4.722;2023-04-03T00:32:52;4.30;99.90
14555;DHT22;7364;50.870;4.722;2023-04-03T00:35:20;4.30;99.90
14555;DHT22;7364;50.870;4.722;2023-04-03T00:37:50;4.30;99.90
14555;DHT22;7364;50.870;4.722;2023-04-03T00:40:18;4.30;99.90
14555;DHT22;7364;50.870;4.722;2023-04-03T00:42:49;4.30;99.90
14555;DHT22;7364;50.870;4.722;2023-04-03T00:45:26;4.20;99.90
14555;DHT22;7364;50.870;4.722;2023-04-03T00:47:54;4.30;99.90
14555;DHT22;7364;50.870;4.722;2023-04-03T00:50:23;4.20;99.90
14555;DHT22;7364;50.870;4.722;2023-04-03T00:52:51;4.20;99.90
14555;DHT22;7364;50.870;4.722;2023-04-03T00:55:18;4.20;99.90
14555;DHT22;7364;50.870;4.722;2023-04-03T00:57:48;4.20;99.90
14555;DHT22;7364;50.870;4.722;2023-04-03T01:00:19;4.10;99.90
14555;DHT22;7364;50.870;4.722;2023-04-03T01:02:46;4.10;99.90
14555;DHT22;7364;50.870;4.722;2023-04-03T01:05:16;4.10;99.90
14555;DHT22;7364;50.870;4.722;2023-04-03T01:07:44;4.10;99.90
14555;DHT22;7364;50.870;4.722;2023-04-03T01:10:14;4.10;99.90
14555;DHT22;7364;50.870;4.722;2023-04-03T01:12:44;4.10;99.90
14555;DHT22;7364;50.870;4.722;2023-04-03T01:15:15;4.00;99.90
14555;DHT22;7364;50.870;4.722;2023-04-03T01:17:44;4.00;99.90
14555;DHT22;7364;50.870;4.722;2023-04-03T01:23:23;3.80;99.90
14555;DHT22;7364;50.870;4.722;2023-04-03T01:25:54;3.70;99.90
14555;DHT22;7364;50.870;4.722;2023-04-03T01:28:23;3.70;99.90
14555;DHT22;7364;50.870;4.722;2023-04-03T01:30:58;3.60;99.90
14555;DHT22;7364;50.870;4.722;2023-04-03T01:33:29;3.60;99.90
14555;DHT22;7364;50.870;4.722;2023-04-03T01:35:57;3.70;99.90
14555;DHT22;7364;50.870;4.722;2023-04-03T01:38:24;3.60;99.90
14555;DHT22;7364;50.870;4.722;2023-04-03T01:40:52;3.70;99.90
14555;DHT22;7364;50.870;4.722;2023-04-03T01:43:19;3.70;99.90
14555;DHT22;7364;50.870;4.722;2023-04-03T01:45:46;3.70;99.90
14555;DHT22;7364;50.870;4.722;2023-04-03T01:48:15;3.70;99.90
14555;DHT22;7364;50.870;4.722;2023-04-03T01:50:44;3.70;99.90
14555;DHT22;7364;50.870;4.722;2023-04-03T01:53:11;3.70;99.90
14555;DHT22;7364;50.870;4.722;2023-04-03T01:55:38;3.80;99.90
14555;DHT22;7364;50.870;4.722;2023-04-03T01:58:06;3.70;99.90
14555;DHT22;7364;50.870;4.722;2023-04-03T02:00:33;3.80;99.90
14555;DHT22;7364;50.870;4.722;2023-04-03T02:03:01;3.80;99.90
14555;DHT22;7364;50.870;4.722;2023-04-03T02:05:29;3.80;99.90
14555;DHT22;7364;50.870;4.722;2023-04-03T02:08:01;3.80;99.90
14555;DHT22;7364;50.870;4.722;2023-04-03T02:10:28;3.90;99.90
14555;DHT22;7364;50.870;4.722;2023-04-03T02:12:55;3.90;99.90
14555;DHT22;7364;50.870;4.722;2023-04-03T02:15:23;4.00;99.90
14555;DHT22;7364;50.870;4.722;2023-04-03T02:17:51;3.90;99.90
14555;DHT22;7364;50.870;4.722;2023-04-03T02:20:19;4.00;99.90
14555;DHT22;7364;50.870;4.722;2023-04-03T02:22:47;4.10;99.90
14555;DHT22;7364;50.870;4.722;2023-04-03T02:25:16;4.10;99.90
14555;DHT22;7364;50.870;4.722;2023-04-03T02:27:44;4.10;99.90
14555;DHT22;7364;50.870;4.722;2023-04-03T02:30:12;4.20;99.90
14555;DHT22;7364;50.870;4.722;2023-04-03T02:32:40;4.20;99.90
14555;DHT22;7364;50.870;4.722;2023-04-03T02:35:08;4.20;99.90
14555;DHT22;7364;50.870;4.722;2023-04-03T02:37:35;4.00;99.90
14555;DHT22;7364;50.870;4.722;2023-04-03T02:40:04;4.00;99.90
14555;DHT22;7364;50.870;4.722;2023-04-03T02:42:33;3.90;99.90
14555;DHT22;7364;50.870;4.722;2023-04-03T02:45:00;3.90;99.90
14555;DHT22;7364;50.870;4.722;2023-04-03T02:47:27;3.90;99.90
14555;DHT22;7364;50.870;4.722;2023-04-03T02:49:55;3.90;99.90
14555;DHT22;7364;50.870;4.722;2023-04-03T02:52:22;3.90;99.90
14555;DHT22;7364;50.870;4.722;2023-04-03T02:54:49;4.10;99.90
14555;DHT22;7364;50.870;4.722;2023-04-03T02:57:16;4.10;99.90
14555;DHT22;7364;50.870;4.722;2023-04-03T02:59:46;4.00;99.90
14555;DHT22;7364;50.870;4.722;2023-04-03T03:02:14;3.90;99.90
14555;DHT22;7364;50.870;4.722;2023-04-03T03:04:41;3.90;99.90
14555;DHT22;7364;50.870;4.722;2023-04-03T03:07:08;3.70;99.90
14555;DHT22;7364;50.870;4.722;2023-04-03T03:09:36;3.70;99.90
14555;DHT22;7364;50.870;4.722;2023-04-03T03:12:04;3.70;99.90
14555;DHT22;7364;50.870;4.722;2023-04-03T03:14:31;3.60;99.90
14555;DHT22;7364;50.870;4.722;2023-04-03T03:17:00;3.50;99.90
14555;DHT22;7364;50.870;4.722;2023-04-03T03:19:27;3.60;99.90
14555;DHT22;7364;50.870;4.722;2023-04-03T03:21:54;3.60;99.90
14555;DHT22;7364;50.870;4.722;2023-04-03T03:24:22;3.50;99.90
14555;DHT22;7364;50.870;4.722;2023-04-03T03:26:49;3.60;99.90
14555;DHT22;7364;50.870;4.722;2023-04-03T03:29:17;3.50;99.90
14555;DHT22;7364;50.870;4.722;2023-04-03T03:31:44;3.50;99.90
14555;DHT22;7364;50.870;4.722;2023-04-03T03:34:13;3.40;99.90
14555;DHT22;7364;50.870;4.722;2023-04-03T03:36:40;3.40;99.90
14555;DHT22;7364;50.870;4.722;2023-04-03T03:39:08;3.30;99.90
14555;DHT22;7364;50.870;4.722;2023-04-03T03:41:35;3.30;99.90
14555;DHT22;7364;50.870;4.722;2023-04-03T03:44:03;3.30;99.90
14555;DHT22;7364;50.870;4.722;2023-04-03T03:46:31;3.30;99.90
14555;DHT22;7364;50.870;4.722;2023-04-03T03:48:58;3.30;99.90
14555;DHT22;7364;50.870;4.722;2023-04-03T03:51:27;3.20;99.90
14555;DHT22;7364;50.870;4.722;2023-04-03T03:53:55;3.20;99.90
14555;DHT22;7364;50.870;4.722;2023-04-03T03:56:22;3.20;99.90
14555;DHT22;7364;50.870;4.722;2023-04-03T03:58:49;3.20;99.90
14555;DHT22;7364;50.870;4.722;2023-04-03T04:01:17;3.10;99.90
14555;DHT22;7364;50.870;4.722;2023-04-03T04:03:44;3.10;99.90
14555;DHT22;7364;50.870;4.722;2023-04-03T04:06:11;3.10;99.90
14555;DHT22;7364;50.870;4.722;2023-04-03T04:08:40;3.00;99.90
14555;DHT22;7364;50.870;4.722;2023-04-03T04:11:08;3.00;99.90
14555;DHT22;7364;50.870;4.722;2023-04-03T04:13:35;3.10;99.90
14555;DHT22;7364;50.870;4.722;2023-04-03T04:16:03;3.10;99.90
14555;DHT22;7364;50.870;4.722;2023-04-03T04:18:30;3.10;99.90
14555;DHT22;7364;50.870;4.722;2023-04-03T04:20:58;3.00;99.90
14555;DHT22;7364;50.870;4.722;2023-04-03T04:23:25;3.00;99.90
14555;DHT22;7364;50.870;4.722;2023-04-03T04:25:54;3.00;99.90
14555;DHT22;7364;50.870;4.722;2023-04-03T04:28:21;3.00;99.90
14555;DHT22;7364;50.870;4.722;2023-04-03T04:30:48;3.00;99.90
14555;DHT22;7364;50.870;4.722;2023-04-03T04:33:16;3.00;99.90
14555;DHT22;7364;50.870;4.722;2023-04-03T04:35:43;3.00;99.90
14555;DHT22;7364;50.870;4.722;2023-04-03T04:38:10;2.90;99.90
14555;DHT22;7364;50.870;4.722;2023-04-03T04:40:38;2.90;99.90
14555;DHT22;7364;50.870;4.722;2023-04-03T04:43:07;2.90;99.90
14555;DHT22;7364;50.870;4.722;2023-04-03T04:45:34;2.90;99.90
14555;DHT22;7364;50.870;4.722;2023-04-03T04:48:01;2.90;99.90
14555;DHT22;7364;50.870;4.722;2023-04-03T04:50:29;2.80;99.90
14555;DHT22;7364;50.870;4.722;2023-04-03T04:52:56;2.70;99.90
14555;DHT22;7364;50.870;4.722;2023-04-03T04:55:24;2.70;99.90
14555;DHT22;7364;50.870;4.722;2023-04-03T04:57:51;2.60;99.90
14555;DHT22;7364;50.870;4.722;2023-04-03T05:00:21;2.60;99.90
14555;DHT22;7364;50.870;4.722;2023-04-03T05:02:48;2.60;99.90
14555;DHT22;7364;50.870;4.722;2023-04-03T05:05:16;2.50;99.90
14555;DHT22;7364;50.870;4.722;2023-04-03T05:07:43;2.40;99.90
14555;DHT22;7364;50.870;4.722;2023-04-03T05:10:11;2.40;99.90
14555;DHT22;7364;50.870;4.722;2023-04-03T05:12:38;2.40;99.90
14555;DHT22;7364;50.870;4.722;2023-04-03T05:15:07;2.50;99.90
14555;DHT22;7364;50.870;4.722;2023-04-03T05:17:37;2.60;99.90
14555;DHT22;7364;50.870;4.722;2023-04-03T05:20:05;2.60;99.90
14555;DHT22;7364;50.870;4.722;2023-04-03T05:22:34;2.70;99.90
14555;DHT22;7364;50.870;4.722;2023-04-03T05:25:01;2.70;99.90
14555;DHT22;7364;50.870;4.722;2023-04-03T05:27:29;2.70;99.90
14555;DHT22;7364;50.870;4.722;2023-04-03T05:29:57;2.80;99.90
14555;DHT22;7364;50.870;4.722;2023-04-03T05:32:28;2.80;99.90
14555;DHT22;7364;50.870;4.722;2023-04-03T05:34:57;2.80;99.90
14555;DHT22;7364;50.870;4.722;2023-04-03T05:37:24;2.80;99.90
14555;DHT22;7364;50.870;4.722;2023-04-03T05:39:51;2.80;99.90
14555;DHT22;7364;50.870;4.722;2023-04-03T05:42:19;2.90;99.90
14555;DHT22;7364;50.870;4.722;2023-04-03T05:44:46;3.00;99.90
14555;DHT22;7364;50.870;4.722;2023-04-03T05:47:16;3.00;99.90
14555;DHT22;7364;50.870;4.722;2023-04-03T05:49:47;3.10;99.90
14555;DHT22;7364;50.870;4.722;2023-04-03T05:52:21;3.20;99.90
14555;DHT22;7364;50.870;4.722;2023-04-03T05:54:49;3.10;99.90
14555;DHT22;7364;50.870;4.722;2023-04-03T05:57:17;3.10;99.90
14555;DHT22;7364;50.870;4.722;2023-04-03T05:59:46;3.10;99.90
14555;DHT22;7364;50.870;4.722;2023-04-03T06:02:15;3.10;99.90
14555;DHT22;7364;50.870;4.722;2023-04-03T06:04:42;3.00;99.90
14555;DHT22;7364;50.870;4.722;2023-04-03T06:07:12;3.00;99.90
14555;DHT22;7364;50.870;4.722;2023-04-03T06:09:43;3.00;99.90
14555;DHT22;7364;50.870;4.722;2023-04-03T06:12:10;3.00;99.90
14555;DHT22;7364;50.870;4.722;2023-04-03T06:14:38;3.00;99.90
14555;DHT22;7364;50.870;4.722;2023-04-03T06:17:06;3.00;99.90
14555;DHT22;7364;50.870;4.722;2023-04-03T06:19:34;3.00;99.90
14555;DHT22;7364;50.870;4.722;2023-04-03T06:22:06;3.10;99.90
14555;DHT22;7364;50.870;4.722;2023-04-03T06:24:36;3.20;99.90
14555;DHT22;7364;50.870;4.722;2023-04-03T06:27:05;3.30;99.90
14555;DHT22;7364;50.870;4.722;2023-04-03T06:29:33;3.40;99.90
14555;DHT22;7364;50.870;4.722;2023-04-03T06:32:01;3.50;99.90
14555;DHT22;7364;50.870;4.722;2023-04-03T06:34:28;3.50;99.90
14555;DHT22;7364;50.870;4.722;2023-04-03T06:36:57;3.50;99.90
14555;DHT22;7364;50.870;4.722;2023-04-03T06:39:25;3.50;99.90
14555;DHT22;7364;50.870;4.722;2023-04-03T06:41:53;3.50;99.90
14555;DHT22;7364;50.870;4.722;2023-04-03T06:44:22;3.70;99.90
14555;DHT22;7364;50.870;4.722;2023-04-03T06:46:49;3.80;99.90
14555;DHT22;7364;50.870;4.722;2023-04-03T06:49:18;3.80;99.90
14555;DHT22;7364;50.870;4.722;2023-04-03T06:51:46;4.10;99.90
14555;DHT22;7364;50.870;4.722;2023-04-03T06:54:13;4.20;99.90
14555;DHT22;7364;50.870;4.722;2023-04-03T06:56:41;4.30;99.90
14555;DHT22;7364;50.870;4.722;2023-04-03T06:59:09;4.50;99.90
14555;DHT22;7364;50.870;4.722;2023-04-03T07:01:38;4.70;99.90
14555;DHT22;7364;50.870;4.722;2023-04-03T07:04:06;4.70;99.90
14555;DHT22;7364;50.870;4.722;2023-04-03T07:06:34;4.70;99.90
14555;DHT22;7364;50.870;4.722;2023-04-03T07:09:02;4.60;99.90
14555;DHT22;7364;50.870;4.722;2023-04-03T07:11:29;4.60;99.90
14555;DHT22;7364;50.870;4.722;2023-04-03T07:13:57;4.70;99.90
14555;DHT22;7364;50.870;4.722;2023-04-03T07:16:24;5.10;99.90
14555;DHT22;7364;50.870;4.722;2023-04-03T07:18:53;5.10;99.90
14555;DHT22;7364;50.870;4.722;2023-04-03T07:21:21;5.30;99.90
14555;DHT22;7364;50.870;4.722;2023-04-03T07:23:48;5.50;99.90
14555;DHT22;7364;50.870;4.722;2023-04-03T07:26:16;5.70;99.90
14555;DHT22;7364;50.870;4.722;2023-04-03T07:28:43;5.90;99.90
14555;DHT22;7364;50.870;4.722;2023-04-03T07:31:15;6.00;99.90
14555;DHT22;7364;50.870;4.722;2023-04-03T07:33:43;6.00;99.90
14555;DHT22;7364;50.870;4.722;2023-04-03T07:36:17;6.30;99.90
14555;DHT22;7364;50.870;4.722;2023-04-03T07:38:44;6.40;99.90
14555;DHT22;7364;50.870;4.722;2023-04-03T07:41:13;6.60;99.90
14555;DHT22;7364;50.870;4.722;2023-04-03T07:43:41;6.60;99.90
14555;DHT22;7364;50.870;4.722;2023-04-03T07:46:08;6.40;99.90
14555;DHT22;7364;50.870;4.722;2023-04-03T07:48:36;6.50;99.90
14555;DHT22;7364;50.870;4.722;2023-04-03T07:51:04;6.50;99.90
14555;DHT22;7364;50.870;4.722;2023-04-03T07:53:33;6.80;99.90
14555;DHT22;7364;50.870;4.722;2023-04-03T07:56:00;6.70;99.90
14555;DHT22;7364;50.870;4.722;2023-04-03T07:58:29;6.90;99.90
14555;DHT22;7364;50.870;4.722;2023-04-03T08:00:56;6.90;99.90
14555;DHT22;7364;50.870;4.722;2023-04-03T08:03:23;7.10;99.90
14555;DHT22;7364;50.870;4.722;2023-04-03T08:05:51;7.20;99.90
14555;DHT22;7364;50.870;4.722;2023-04-03T08:08:21;7.20;99.90
14555;DHT22;7364;50.870;4.722;2023-04-03T08:10:50;7.20;99.90
14555;DHT22;7364;50.870;4.722;2023-04-03T08:13:18;7.00;99.90
14555;DHT22;7364;50.870;4.722;2023-04-03T08:15:46;6.80;99.90
14555;DHT22;7364;50.870;4.722;2023-04-03T08:18:13;6.90;99.90
14555;DHT22;7364;50.870;4.722;2023-04-03T08:20:44;7.10;99.90
14555;DHT22;7364;50.870;4.722;2023-04-03T08:23:12;7.10;99.90
14555;DHT22;7364;50.870;4.722;2023-04-03T08:25:40;7.20;99.90
14555;DHT22;7364;50.870;4.722;2023-04-03T08:28:11;7.00;99.90
14555;DHT22;7364;50.870;4.722;2023-04-03T08:30:41;7.20;99.90
14555;DHT22;7364;50.870;4.722;2023-04-03T08:33:09;7.30;99.90
14555;DHT22;7364;50.870;4.722;2023-04-03T08:35:39;7.20;99.90
14555;DHT22;7364;50.870;4.722;2023-04-03T08:38:07;7.20;99.90
14555;DHT22;7364;50.870;4.722;2023-04-03T08:40:34;7.60;99.90
14555;DHT22;7364;50.870;4.722;2023-04-03T08:43:14;7.90;99.90
14555;DHT22;7364;50.870;4.722;2023-04-03T08:45:48;8.00;99.90
14555;DHT22;7364;50.870;4.722;2023-04-03T08:48:20;8.20;99.90
14555;DHT22;7364;50.870;4.722;2023-04-03T08:50:55;8.20;99.90
14555;DHT22;7364;50.870;4.722;2023-04-03T08:53:26;8.10;99.90
14555;DHT22;7364;50.870;4.722;2023-04-03T08:55:59;7.50;99.90
14555;DHT22;7364;50.870;4.722;2023-04-03T08:58:35;7.30;99.90
14555;DHT22;7364;50.870;4.722;2023-04-03T09:01:17;7.30;99.90
14555;DHT22;7364;50.870;4.722;2023-04-03T09:03:46;7.60;99.90
14555;DHT22;7364;50.870;4.722;2023-04-03T09:06:15;8.00;99.90
14555;DHT22;7364;50.870;4.722;2023-04-03T09:08:47;8.20;99.90
14555;DHT22;7364;50.870;4.722;2023-04-03T09:11:21;8.30;99.90
14555;DHT22;7364;50.870;4.722;2023-04-03T09:13:59;8.60;99.90
14555;DHT22;7364;50.870;4.722;2023-04-03T09:16:37;8.70;99.90
14555;DHT22;7364;50.870;4.722;2023-04-03T09:19:18;8.40;99.90
14555;DHT22;7364;50.870;4.722;2023-04-03T09:21:49;8.60;99.90
14555;DHT22;7364;50.870;4.722;2023-04-03T09:24:16;8.60;99.90
14555;DHT22;7364;50.870;4.722;2023-04-03T09:26:48;8.30;99.90
14555;DHT22;7364;50.870;4.722;2023-04-03T09:29:20;8.50;99.90
14555;DHT22;7364;50.870;4.722;2023-04-03T09:31:50;8.40;99.90
14555;DHT22;7364;50.870;4.722;2023-04-03T09:34:22;8.70;99.90
14555;DHT22;7364;50.870;4.722;2023-04-03T09:36:51;8.60;99.90
14555;DHT22;7364;50.870;4.722;2023-04-03T09:39:20;9.00;99.90
14555;DHT22;7364;50.870;4.722;2023-04-03T09:41:59;9.30;99.90
14555;DHT22;7364;50.870;4.722;2023-04-03T09:44:30;10.20;99.90
14555;DHT22;7364;50.870;4.722;2023-04-03T09:46:58;10.30;99.90
14555;DHT22;7364;50.870;4.722;2023-04-03T09:49:26;10.50;99.90
14555;DHT22;7364;50.870;4.722;2023-04-03T09:51:54;10.60;99.90
14555;DHT22;7364;50.870;4.722;2023-04-03T09:54:39;11.20;99.90
14555;DHT22;7364;50.870;4.722;2023-04-03T09:57:09;12.10;99.90
14555;DHT22;7364;50.870;4.722;2023-04-03T09:59:44;12.10;99.90
14555;DHT22;7364;50.870;4.722;2023-04-03T10:02:30;12.70;99.90
14555;DHT22;7364;50.870;4.722;2023-04-03T10:05:00;13.60;98.40
14555;DHT22;7364;50.870;4.722;2023-04-03T10:07:33;13.80;96.90
14555;DHT22;7364;50.870;4.722;2023-04-03T10:10:14;13.80;96.90
14555;DHT22;7364;50.870;4.722;2023-04-03T10:12:43;13.60;96.80
14555;DHT22;7364;50.870;4.722;2023-04-03T10:15:14;14.40;96.20
14555;DHT22;7364;50.870;4.722;2023-04-03T10:17:52;14.70;95.70
14555;DHT22;7364;50.870;4.722;2023-04-03T10:20:30;15.00;95.00
14555;DHT22;7364;50.870;4.722;2023-04-03T10:23:14;14.10;95.00
14555;DHT22;7364;50.870;4.722;2023-04-03T10:25:50;14.20;95.20
14555;DHT22;7364;50.870;4.722;2023-04-03T10:28:23;14.80;94.20
14555;DHT22;7364;50.870;4.722;2023-04-03T10:31:00;15.50;93.30
14555;DHT22;7364;50.870;4.722;2023-04-03T10:33:43;16.00;91.80
14555;DHT22;7364;50.870;4.722;2023-04-03T10:36:20;15.90;91.90
14555;DHT22;7364;50.870;4.722;2023-04-03T10:39:00;16.40;91.00
14555;DHT22;7364;50.870;4.722;2023-04-03T10:41:40;16.10;88.60
14555;DHT22;7364;50.870;4.722;2023-04-03T10:44:18;14.90;87.30
14555;DHT22;7364;50.870;4.722;2023-04-03T10:46:55;14.00;91.00
14555;DHT22;7364;50.870;4.722;2023-04-03T10:49:36;14.10;91.00
14555;DHT22;7364;50.870;4.722;2023-04-03T10:52:14;13.90;91.50
14555;DHT22;7364;50.870;4.722;2023-04-03T10:54:49;14.60;90.90
14555;DHT22;7364;50.870;4.722;2023-04-03T10:57:23;14.20;90.60
14555;DHT22;7364;50.870;4.722;2023-04-03T10:59:55;15.20;85.50
14555;DHT22;7364;50.870;4.722;2023-04-03T11:02:28;16.00;80.70
14555;DHT22;7364;50.870;4.722;2023-04-03T11:05:02;16.70;79.40
14555;DHT22;7364;50.870;4.722;2023-04-03T11:07:37;17.60;78.20
14555;DHT22;7364;50.870;4.722;2023-04-03T11:10:12;17.90;78.60
14555;DHT22;7364;50.870;4.722;2023-04-03T11:12:43;17.30;75.30
14555;DHT22;7364;50.870;4.722;2023-04-03T11:15:14;17.20;73.60
14555;DHT22;7364;50.870;4.722;2023-04-03T11:17:48;17.30;75.60
14555;DHT22;7364;50.870;4.722;2023-04-03T11:20:21;18.00;72.80
14555;DHT22;7364;50.870;4.722;2023-04-03T11:22:58;18.40;73.10
14555;DHT22;7364;50.870;4.722;2023-04-03T11:25:30;18.80;71.70
14555;DHT22;7364;50.870;4.722;2023-04-03T11:28:00;19.30;63.70
14555;DHT22;7364;50.870;4.722;2023-04-03T11:30:33;19.60;63.70
14555;DHT22;7364;50.870;4.722;2023-04-03T11:33:37;19.90;59.00
14555;DHT22;7364;50.870;4.722;2023-04-03T11:36:11;19.00;61.70
14555;DHT22;7364;50.870;4.722;2023-04-03T11:38:44;19.70;58.20
14555;DHT22;7364;50.870;4.722;2023-04-03T11:41:13;20.30;57.40
14555;DHT22;7364;50.870;4.722;2023-04-03T11:43:43;20.50;54.70
14555;DHT22;7364;50.870;4.722;2023-04-03T11:46:23;20.80;54.10
14555;DHT22;7364;50.870;4.722;2023-04-03T11:49:57;19.70;57.50
14555;DHT22;7364;50.870;4.722;2023-04-03T11:55:56;20.70;54.60
14555;DHT22;7364;50.870;4.722;2023-04-03T11:58:25;21.70;50.90
14555;DHT22;7364;50.870;4.722;2023-04-03T12:00:56;22.00;51.60
14555;DHT22;7364;50.870;4.722;2023-04-03T12:07:00;21.70;50.30
14555;DHT22;7364;50.870;4.722;2023-04-03T12:09:58;22.10;49.40
14555;DHT22;7364;50.870;4.722;2023-04-03T12:12:33;22.40;48.70
14555;DHT22;7364;50.870;4.722;2023-04-03T12:21:11;22.80;45.70
14555;DHT22;7364;50.870;4.722;2023-04-03T12:24:02;22.80;44.70
14555;DHT22;7364;50.870;4.722;2023-04-03T12:26:35;23.50;41.80
14555;DHT22;7364;50.870;4.722;2023-04-03T12:29:14;22.60;43.20
14555;DHT22;7364;50.870;4.722;2023-04-03T12:31:48;23.30;43.10
14555;DHT22;7364;50.870;4.722;2023-04-03T12:34:48;24.10;43.80
14555;DHT22;7364;50.870;4.722;2023-04-03T12:37:30;23.70;42.40
14555;DHT22;7364;50.870;4.722;2023-04-03T12:40:10;23.90;40.20
14555;DHT22;7364;50.870;4.722;2023-04-03T12:43:07;25.00;39.50
14555;DHT22;7364;50.870;4.722;2023-04-03T12:45:43;25.50;38.90
14555;DHT22;7364;50.870;4.722;2023-04-03T12:48:15;26.10;37.30
14555;DHT22;7364;50.870;4.722;2023-04-03T12:50:46;24.50;39.10
14555;DHT22;7364;50.870;4.722;2023-04-03T12:53:19;24.80;39.10
14555;DHT22;7364;50.870;4.722;2023-04-03T12:55:53;25.50;38.70
14555;DHT22;7364;50.870;4.722;2023-04-03T12:58:23;24.80;37.50
14555;DHT22;7364;50.870;4.722;2023-04-03T13:01:01;23.50;39.70
14555;DHT22;7364;50.870;4.722;2023-04-03T13:03:29;23.30;40.20
14555;DHT22;7364;50.870;4.722;2023-04-03T13:06:01;24.90;39.80
14555;DHT22;7364;50.870;4.722;2023-04-03T13:08:30;25.80;38.80
14555;DHT22;7364;50.870;4.722;2023-04-03T13:11:02;25.90;36.80
14555;DHT22;7364;50.870;4.722;2023-04-03T13:13:30;25.90;36.60
14555;DHT22;7364;50.870;4.722;2023-04-03T13:15:58;26.80;36.60
14555;DHT22;7364;50.870;4.722;2023-04-03T13:18:28;26.50;37.20
14555;DHT22;7364;50.870;4.722;2023-04-03T13:21:00;27.30;34.80
14555;DHT22;7364;50.870;4.722;2023-04-03T13:23:29;27.70;35.50
14555;DHT22;7364;50.870;4.722;2023-04-03T13:25:59;27.60;34.60
14555;DHT22;7364;50.870;4.722;2023-04-03T13:28:32;27.90;33.10
14555;DHT22;7364;50.870;4.722;2023-04-03T13:31:04;27.90;35.50
14555;DHT22;7364;50.870;4.722;2023-04-03T13:33:34;27.80;33.30
14555;DHT22;7364;50.870;4.722;2023-04-03T13:36:06;27.20;35.00
14555;DHT22;7364;50.870;4.722;2023-04-03T13:38:35;26.10;36.50
14555;DHT22;7364;50.870;4.722;2023-04-03T13:41:20;27.00;35.10
14555;DHT22;7364;50.870;4.722;2023-04-03T13:43:49;27.80;32.20
14555;DHT22;7364;50.870;4.722;2023-04-03T13:46:26;28.40;30.10
14555;DHT22;7364;50.870;4.722;2023-04-03T13:48:55;28.50;33.00
14555;DHT22;7364;50.870;4.722;2023-04-03T13:51:25;28.10;31.10
14555;DHT22;7364;50.870;4.722;2023-04-03T13:53:55;27.60;30.50
14555;DHT22;7364;50.870;4.722;2023-04-03T13:56:31;28.20;30.80
14555;DHT22;7364;50.870;4.722;2023-04-03T13:59:22;28.10;31.10
14555;DHT22;7364;50.870;4.722;2023-04-03T14:01:53;29.30;29.70
14555;DHT22;7364;50.870;4.722;2023-04-03T14:04:23;29.40;28.10
14555;DHT22;7364;50.870;4.722;2023-04-03T14:06:53;29.60;27.60
14555;DHT22;7364;50.870;4.722;2023-04-03T14:09:24;30.30;28.90
14555;DHT22;7364;50.870;4.722;2023-04-03T14:11:57;30.30;29.20
14555;DHT22;7364;50.870;4.722;2023-04-03T14:14:29;30.30;30.50
14555;DHT22;7364;50.870;4.722;2023-04-03T14:17:00;28.60;29.70
14555;DHT22;7364;50.870;4.722;2023-04-03T14:19:30;29.60;29.20
14555;DHT22;7364;50.870;4.722;2023-04-03T14:21:59;30.20;28.20
14555;DHT22;7364;50.870;4.722;2023-04-03T14:24:27;30.70;28.00
14555;DHT22;7364;50.870;4.722;2023-04-03T14:26:57;31.30;28.60
14555;DHT22;7364;50.870;4.722;2023-04-03T14:29:25;30.50;29.60
14555;DHT22;7364;50.870;4.722;2023-04-03T14:31:52;29.80;29.90
14555;DHT22;7364;50.870;4.722;2023-04-03T14:34:19;30.20;28.40
14555;DHT22;7364;50.870;4.722;2023-04-03T14:36:47;30.70;28.20
14555;DHT22;7364;50.870;4.722;2023-04-03T14:39:17;30.80;29.80
14555;DHT22;7364;50.870;4.722;2023-04-03T14:41:45;30.90;29.70
14555;DHT22;7364;50.870;4.722;2023-04-03T14:44:14;31.40;29.60
14555;DHT22;7364;50.870;4.722;2023-04-03T14:46:43;30.60;29.80
14555;DHT22;7364;50.870;4.722;2023-04-03T14:49:15;30.60;29.50
14555;DHT22;7364;50.870;4.722;2023-04-03T14:51:43;30.60;28.70
14555;DHT22;7364;50.870;4.722;2023-04-03T14:54:13;31.00;28.50
14555;DHT22;7364;50.870;4.722;2023-04-03T14:56:42;32.20;28.40
14555;DHT22;7364;50.870;4.722;2023-04-03T14:59:12;32.50;28.30
14555;DHT22;7364;50.870;4.722;2023-04-03T15:01:42;32.80;27.80
14555;DHT22;7364;50.870;4.722;2023-04-03T15:04:12;33.40;28.80
14555;DHT22;7364;50.870;4.722;2023-04-03T15:06:39;34.10;26.90
14555;DHT22;7364;50.870;4.722;2023-04-03T15:09:14;34.40;26.60
14555;DHT22;7364;50.870;4.722;2023-04-03T15:11:46;33.80;25.60
14555;DHT22;7364;50.870;4.722;2023-04-03T15:14:20;34.00;27.10
14555;DHT22;7364;50.870;4.722;2023-04-03T15:16:50;32.50;27.20
14555;DHT22;7364;50.870;4.722;2023-04-03T15:19:19;32.90;25.80
14555;DHT22;7364;50.870;4.722;2023-04-03T15:21:46;33.20;26.10
14555;DHT22;7364;50.870;4.722;2023-04-03T15:24:14;33.50;26.40
14555;DHT22;7364;50.870;4.722;2023-04-03T15:26:41;33.30;26.60
14555;DHT22;7364;50.870;4.722;2023-04-03T15:29:09;33.70;26.70
14555;DHT22;7364;50.870;4.722;2023-04-03T15:31:36;33.50;26.90
14555;DHT22;7364;50.870;4.722;2023-04-03T15:34:05;32.40;27.10
14555;DHT22;7364;50.870;4.722;2023-04-03T15:36:32;31.80;28.30
14555;DHT22;7364;50.870;4.722;2023-04-03T15:39:00;32.50;27.60
14555;DHT22;7364;50.870;4.722;2023-04-03T15:41:27;33.10;26.50
14555;DHT22;7364;50.870;4.722;2023-04-03T15:43:55;33.30;27.20
14555;DHT22;7364;50.870;4.722;2023-04-03T15:46:22;33.40;26.10
14555;DHT22;7364;50.870;4.722;2023-04-03T15:48:49;33.10;26.70
14555;DHT22;7364;50.870;4.722;2023-04-03T15:51:18;32.30;27.40
14555;DHT22;7364;50.870;4.722;2023-04-03T15:53:45;29.20;28.50
14555;DHT22;7364;50.870;4.722;2023-04-03T15:56:13;26.50;30.10
14555;DHT22;7364;50.870;4.722;2023-04-03T15:58:40;25.30;32.50
14555;DHT22;7364;50.870;4.722;2023-04-03T16:01:09;24.80;32.60
14555;DHT22;7364;50.870;4.722;2023-04-03T16:03:39;23.80;32.40
14555;DHT22;7364;50.870;4.722;2023-04-03T16:06:10;23.40;33.00
14555;DHT22;7364;50.870;4.722;2023-04-03T16:08:39;22.70;34.00
14555;DHT22;7364;50.870;4.722;2023-04-03T16:11:07;22.40;34.80
14555;DHT22;7364;50.870;4.722;2023-04-03T16:13:35;21.80;34.70
14555;DHT22;7364;50.870;4.722;2023-04-03T16:16:03;21.30;35.40
14555;DHT22;7364;50.870;4.722;2023-04-03T16:18:31;20.80;37.00
14555;DHT22;7364;50.870;4.722;2023-04-03T16:21:00;20.40;37.40
14555;DHT22;7364;50.870;4.722;2023-04-03T16:23:27;20.00;37.00
14555;DHT22;7364;50.870;4.722;2023-04-03T16:25:56;19.30;38.20
14555;DHT22;7364;50.870;4.722;2023-04-03T16:28:23;18.70;39.60
14555;DHT22;7364;50.870;4.722;2023-04-03T16:30:51;18.50;39.20